Monday, November 20, 2017, 4:22 AM EST

KPTW, Pottstown Limerick Airport

Location: Royersford, PA, United States Lat: 40.233
Local Time: 4:22 AM EST ( 9:22 GMT) Lon: -75.55
Time Zone: US/Eastern Elev: 291 ft

Show me the last for .
Show Decoded

2017-11-20 03:54 METAR KPTW 200854Z AUTO 29011G17KT 10SM CLR 02/M05 A2998 RMK AO2 SLP150
                 T00171050 51024 =
2017-11-20 02:54 METAR KPTW 200754Z AUTO 28005KT 10SM SCT070 02/M04 A2997 RMK AO2 SLP147
                 T00171044 =
2017-11-20 01:54 METAR KPTW 200654Z AUTO 28008G17KT 240V320 10SM SCT075 02/M04 A2994 RMK AO2
                 SLP137 T00221044 =
2017-11-20 00:54 METAR KPTW 200554Z AUTO 29010G17KT 270V330 10SM SCT043 BKN050 BKN060 03/M04
                 A2991 RMK AO2 SLP126 T00281039 10056 20017 53020 =
2017-11-19 23:54 METAR KPTW 200454Z AUTO 27005KT 10SM FEW046 SCT085 03/M04 A2988 RMK AO2 SLP118
                 T00281039 401440017 =
2017-11-19 22:54 METAR KPTW 200354Z AUTO 29008KT 10SM CLR 03/M04 A2986 RMK AO2 SLP111 T00281039 =
2017-11-19 21:54 METAR KPTW 200254Z AUTO 28005KT 10SM CLR 03/M04 A2985 RMK AO2 SLP106 T00281039
                 51023 =
2017-11-19 20:54 METAR KPTW 200154Z AUTO 28007KT 10SM CLR 03/M03 A2982 RMK AO2 SLP098 T00331033 =
2017-11-19 19:54 METAR KPTW 200054Z AUTO 27009G14KT 10SM FEW044 SCT065 BKN080 04/M03 A2981 RMK
                 AO2 SLP092 T00441028 =
2017-11-19 18:54 METAR KPTW 192354Z AUTO 28011G22KT 250V310 10SM FEW048 BKN060 OVC075 06/M03
                 A2978 RMK AO2 SLP083 60000 T00561028 10100 20050 51033 =
2017-11-19 17:54 METAR KPTW 192254Z AUTO 29008G17KT 10SM FEW070 06/M04 A2975 RMK AO2 SLP073
                 T00561044 =
2017-11-19 16:54 METAR KPTW 192154Z AUTO 28007G19KT 10SM OVC065 06/M04 A2972 RMK AO2 PK WND
                 29026/2103 SLP061 T00611039 =
2017-11-19 15:54 METAR KPTW 192054Z AUTO 28009G19KT 10SM OVC055 07/M02 A2968 RMK AO2 RAB1957E1958
                 SLP049 P0000 60000 T00721022 53022 =
2017-11-19 14:54 METAR KPTW 191954Z AUTO 29015G23KT 10SM BKN055 09/M01 A2964 RMK AO2 PK WND
                 29027/1907 RAB02E18 SLP036 P0000 T00891011 =
2017-11-19 13:54 METAR KPTW 191854Z AUTO 29010G23KT 10SM SCT049 SCT060 08/M01 A2963 RMK AO2 PK
                 WND 29026/1837 RAB06E48 SLP031 P0000 T00831006 =
2017-11-19 12:54 METAR KPTW 191754Z AUTO 30010G18KT 10SM BKN049 08/M01 A2961 RMK AO2 PK WND
                 30028/1655 RAE31 SLP026 P0000 60000 T00831011 10106 20078 51023 =
2017-11-19 11:54 METAR KPTW 191654Z AUTO 29015G31KT 10SM -RA BKN047 OVC055 09/M01 A2960 RMK AO2
                 PK WND 30031/1650 SLP022 P0000 T00891011 =
2017-11-19 10:54 METAR KPTW 191554Z AUTO 29011G26KT 10SM -RA FEW047 09/00 A2958 RMK AO2 PK WND
                 30031/1508 SLP013 P0000 T00890000 =
2017-11-19 09:54 METAR KPTW 191454Z AUTO 30020G32KT 10SM -RA BKN045 09/01 A2955 RMK AO2 PK WND
                 31032/1453 SLP003 P0000 60000 T00890006 51051 =
2017-11-19 08:54 METAR KPTW 191354Z AUTO 29014G30KT 10SM -RA BKN043 08/01 A2950 RMK AO2 PK WND
                 30030/1351 SLP990 P0000 T00830011 =
2017-11-19 07:54 METAR KPTW 191254Z AUTO 30016G29KT 10SM -RA BKN040 08/02 A2945 RMK AO2 PK WND
                 29033/1217 RAB22 SLP973 P0000 T00830017 =
2017-11-19 06:54 METAR KPTW 191154Z AUTO 28015G38KT 10SM OVC037 09/02 A2939 RMK AO2 PK WND
                 29038/1152 RAE1058 PRESRR SLP952 P0000 60016 70078 T00890022 10144 20089 53043 =
2017-11-19 05:54 METAR KPTW 191054Z AUTO 25017G30KT 8SM -RA FEW015 BKN032 OVC047 13/11 A2930 RMK
                 AO2 PK WND 24030/1051 PRESRR SLP918 P0003 T01280111 =
2017-11-19 05:50 METAR KPTW 191050Z AUTO 25017G25KT 7SM -RA SCT017 BKN025 OVC050 13/12 A2929 RMK
                 AO2 P0003 =
2017-11-19 04:54 METAR KPTW 190954Z AUTO 21013G20KT 4SM -RA BR SCT023 BKN042 OVC070 14/13 A2927
                 RMK AO2 PK WND 22032/0922 RAB22 SLP908 P0003 T01390128 =
2017-11-19 04:51 METAR KPTW 190951Z AUTO 22010G22KT 3SM RA BR SCT019 BKN043 OVC055 14/13 A2926
                 RMK AO2 PK WND 22032/0922 RAB22 PRESFR P0003 =

Support USWX by starting your Amazon purchase here.